Time;durP1;ratioP1;P1;durP2;ratioP2;P2;SDS_P1;SDS_P2;PMS_P1;PMS_P2;Temp;Humidity;BMP_temperature;BMP_pressure;BME280_temperature;BME280_humidity;BME280_pressure;Samples;Min_cycle;Max_cycle;Signal;HPM_P1;HPM_P2
2023/07/19 00:01:05;;;;;;;114.80;109.82;;;;;;;28.12;32.00;101313.53;5046114;28;20041;-72
2023/07/19 00:03:31;;;;;;;117.88;112.68;;;;;;;28.08;31.86;101312.63;5045993;28;20514;-72
2023/07/19 00:05:59;;;;;;;116.47;111.38;;;;;;;28.05;31.82;101311.34;5045994;28;20044;-71
2023/07/19 00:08:24;;;;;;;117.25;112.15;;;;;;;28.02;31.88;101323.13;5043793;28;20033;-72
2023/07/19 00:10:50;;;;;;;117.10;112.05;;;;;;;27.98;32.14;101325.81;5040368;28;20036;-74
2023/07/19 00:13:15;;;;;;;116.32;110.97;;;;;;;27.96;32.04;101318.97;5048490;28;20036;-74
2023/07/19 00:15:40;;;;;;;118.05;112.85;;;;;;;27.92;32.11;101310.56;5044365;28;20044;-72
2023/07/19 00:18:06;;;;;;;117.78;112.47;;;;;;;27.89;32.16;101302.88;5049111;28;20041;-72
2023/07/19 00:20:31;;;;;;;115.72;110.65;;;;;;;27.86;32.08;101303.59;5043454;28;20037;-71
2023/07/19 00:22:57;;;;;;;118.68;113.50;;;;;;;27.83;32.22;101301.50;5040964;28;20119;-71
2023/07/19 00:25:22;;;;;;;115.97;110.97;;;;;;;27.79;32.17;101300.53;5046888;28;20507;-72
2023/07/19 00:27:49;;;;;;;113.88;108.95;;;;;;;27.76;32.28;101295.69;5040225;28;20044;-72
2023/07/19 00:30:14;;;;;;;116.13;111.03;;;;;;;27.71;32.40;101293.94;5044376;28;20037;-72
2023/07/19 00:32:40;;;;;;;113.80;108.65;;;;;;;27.68;32.08;101291.88;5045578;28;20423;-73
2023/07/19 00:35:06;;;;;;;120.30;115.03;;;;;;;27.65;32.32;101283.44;5048535;28;20039;-71
2023/07/19 00:37:31;;;;;;;115.30;110.40;;;;;;;27.60;32.46;101279.72;5042362;28;20036;-71
2023/07/19 00:39:58;;;;;;;111.93;106.85;;;;;;;27.57;32.13;101282.41;5036722;28;20037;-72
2023/07/19 00:42:23;;;;;;;117.57;112.47;;;;;;;27.54;32.29;101278.34;5044230;28;20048;-72
2023/07/19 00:44:49;;;;;;;115.38;110.03;;;;;;;27.51;32.27;101267.13;5044416;28;20124;-70
2023/07/19 00:47:15;;;;;;;120.25;114.82;;;;;;;27.48;32.51;101267.81;5038568;28;20037;-73
2023/07/19 00:49:42;;;;;;;112.90;107.70;;;;;;;27.46;32.40;101265.38;5047363;28;20120;-72
2023/07/19 00:52:08;;;;;;;110.38;105.55;;;;;;;27.42;32.36;101281.09;5039580;28;20095;-72
2023/07/19 00:54:34;;;;;;;109.28;104.53;;;;;;;27.39;32.60;101287.31;5046167;28;20029;-72
2023/07/19 00:57:02;;;;;;;113.30;108.43;;;;;;;27.35;32.47;101283.63;5040236;28;20091;-72
2023/07/19 00:59:29;;;;;;;108.82;103.97;;;;;;;27.31;32.48;101277.94;5048434;28;20167;-73
2023/07/19 01:01:54;;;;;;;111.22;106.40;;;;;;;27.29;32.59;101276.66;5038621;28;20080;-73
2023/07/19 01:04:20;;;;;;;115.35;110.15;;;;;;;27.25;32.69;101275.75;5037962;28;20507;-73
2023/07/19 01:06:45;;;;;;;109.60;104.57;;;;;;;27.22;32.90;101279.22;5045143;28;20565;-72
2023/07/19 01:09:13;;;;;;;111.47;106.68;;;;;;;27.19;32.49;101275.97;5049854;28;20040;-73
2023/07/19 01:11:39;;;;;;;110.37;105.50;;;;;;;27.16;32.62;101271.06;5041937;28;20068;-72
2023/07/19 01:14:04;;;;;;;108.70;104.03;;;;;;;27.12;32.73;101272.09;5045155;28;20382;-73
2023/07/19 01:16:30;;;;;;;109.00;103.97;;;;;;;27.09;32.58;101268.06;5041886;28;20033;-72
2023/07/19 01:18:55;;;;;;;109.68;104.88;;;;;;;27.06;32.89;101265.94;5054606;28;20103;-72
2023/07/19 01:21:22;;;;;;;108.53;103.65;;;;;;;27.03;33.00;101260.28;5047264;28;20028;-71
2023/07/19 01:23:47;;;;;;;107.82;102.93;;;;;;;27.00;33.05;101263.75;5048498;28;20144;-72
2023/07/19 01:26:13;;;;;;;112.30;107.40;;;;;;;26.96;32.85;101260.84;5043593;28;20135;-70
2023/07/19 01:28:38;;;;;;;110.15;105.05;;;;;;;26.93;32.71;101265.09;5045148;28;20041;-73
2023/07/19 01:31:05;;;;;;;110.97;105.82;;;;;;;26.90;33.02;101251.94;5042773;28;20059;-73
2023/07/19 01:33:30;;;;;;;107.93;103.15;;;;;;;26.87;33.04;101255.38;5033619;28;20804;-74
2023/07/19 01:35:56;;;;;;;107.45;102.75;;;;;;;26.85;32.93;101259.66;5044122;28;20044;-73
2023/07/19 01:38:21;;;;;;;107.90;103.10;;;;;;;26.81;33.33;101259.50;5040920;28;20033;-71
2023/07/19 01:40:47;;;;;;;108.63;103.88;;;;;;;26.79;32.99;101255.47;5042841;28;20045;-71
2023/07/19 01:43:12;;;;;;;107.40;102.57;;;;;;;26.75;33.04;101258.91;5043910;28;20532;-74
2023/07/19 01:45:38;;;;;;;104.68;99.68;;;;;;;26.71;33.08;101252.44;5043631;28;20028;-73
2023/07/19 01:48:03;;;;;;;110.45;105.63;;;;;;;26.68;33.09;101255.88;5041792;28;20060;-72
2023/07/19 01:50:29;;;;;;;104.82;100.25;;;;;;;26.66;33.15;101260.97;5044431;28;20037;-74
2023/07/19 01:52:55;;;;;;;104.63;100.00;;;;;;;26.63;33.42;101261.63;5049316;28;20127;-74
2023/07/19 01:55:21;;;;;;;111.40;106.38;;;;;;;26.60;33.07;101259.53;5037496;28;20065;-73
2023/07/19 01:57:46;;;;;;;105.90;101.25;;;;;;;26.57;33.29;101262.19;5038695;28;20061;-72
2023/07/19 02:00:13;;;;;;;105.88;101.07;;;;;;;26.55;33.44;101262.53;5044119;28;20033;-75
2023/07/19 02:02:39;;;;;;;105.80;101.10;;;;;;;26.52;33.03;101263.16;5041273;28;20041;-74
2023/07/19 02:05:05;;;;;;;111.28;106.30;;;;;;;26.49;33.13;101247.22;5036809;28;20574;-73
2023/07/19 02:07:30;;;;;;;104.20;99.55;;;;;;;26.46;33.52;101247.88;5036988;28;20101;-73
2023/07/19 02:09:56;;;;;;;109.03;104.10;;;;;;;26.43;33.24;101249.38;5041771;28;20037;-71
2023/07/19 02:12:21;;;;;;;106.30;101.50;;;;;;;26.40;33.06;101250.06;5040059;28;20041;-74
2023/07/19 02:14:46;;;;;;;105.70;100.82;;;;;;;26.37;33.62;101253.50;5044659;28;20048;-72
2023/07/19 02:17:12;;;;;;;103.15;98.35;;;;;;;26.35;33.52;101250.25;5040170;28;20033;-76
2023/07/19 02:19:37;;;;;;;101.32;96.78;;;;;;;26.32;33.82;101248.97;5042704;28;20040;-72
2023/07/19 02:22:03;;;;;;;102.50;97.60;;;;;;;26.29;33.36;101240.53;5039261;28;20053;-73
2023/07/19 02:24:28;;;;;;;105.75;100.82;;;;;;;26.27;33.59;101242.84;5040363;28;20037;-72
2023/07/19 02:26:54;;;;;;;103.57;98.60;;;;;;;26.24;33.44;101243.53;5044224;28;20047;-75
2023/07/19 02:29:19;;;;;;;104.78;100.18;;;;;;;26.21;33.80;101244.19;5040111;28;20060;-72
2023/07/19 02:31:45;;;;;;;106.88;101.88;;;;;;;26.19;33.85;101243.72;5037774;28;20069;-74
2023/07/19 02:34:10;;;;;;;105.60;100.90;;;;;;;26.16;33.62;101245.19;5044288;28;20041;-75
2023/07/19 02:36:36;;;;;;;105.93;101.13;;;;;;;26.13;34.01;101243.09;5038573;28;20044;-73
2023/07/19 02:39:03;;;;;;;100.55;96.07;;;;;;;26.10;33.97;101244.56;5036109;28;20048;-74
2023/07/19 02:41:29;;;;;;;103.22;98.55;;;;;;;26.08;34.08;101241.34;5044446;28;20033;-73
2023/07/19 02:43:54;;;;;;;101.03;96.53;;;;;;;26.06;33.60;101234.53;5048258;28;20037;-71
2023/07/19 02:46:20;;;;;;;103.00;98.20;;;;;;;26.03;33.79;101237.94;5041608;28;20051;-75
2023/07/19 02:48:45;;;;;;;102.80;98.05;;;;;;;26.00;33.71;101236.66;5050990;28;20052;-74
2023/07/19 02:51:11;;;;;;;102.07;97.55;;;;;;;25.98;34.19;101238.97;5045676;28;20393;-73
2023/07/19 02:53:37;;;;;;;102.85;97.95;;;;;;;25.95;34.07;101238.81;5045624;28;20029;-73
2023/07/19 02:56:03;;;;;;;99.18;94.65;;;;;;;25.93;34.08;101230.03;5049079;28;20496;-73
2023/07/19 02:58:28;;;;;;;102.85;98.05;;;;;;;25.90;34.16;101234.28;5047515;28;20032;-73
2023/07/19 03:00:54;;;;;;;99.75;95.15;;;;;;;25.88;34.11;101237.41;5038122;28;20041;-73
2023/07/19 03:03:20;;;;;;;104.45;99.72;;;;;;;25.85;34.22;101238.03;5041138;28;20456;-75
2023/07/19 03:05:45;;;;;;;103.38;98.68;;;;;;;25.83;33.96;101240.31;5049762;28;20029;-75
2023/07/19 03:08:12;;;;;;;101.28;96.70;;;;;;;25.80;34.04;101240.97;5033526;28;20033;-71
2023/07/19 03:10:38;;;;;;;98.10;93.60;;;;;;;25.78;34.13;101237.75;5041140;28;20105;-74
2023/07/19 03:13:04;;;;;;;101.18;96.47;;;;;;;25.77;34.64;101232.53;5049110;28;20052;-71
2023/07/19 03:15:33;;;;;;;101.03;96.50;;;;;;;25.74;34.32;101236.78;5043178;28;20037;-72
2023/07/19 03:18:03;;;;;;;100.47;94.97;;;;;;;25.72;34.76;101243.81;5044252;28;20416;-72
2023/07/19 03:20:29;;;;;;;103.10;98.25;;;;;;;25.69;34.73;101245.28;5039500;28;20037;-73
2023/07/19 03:22:56;;;;;;;99.25;94.57;;;;;;;25.67;34.45;101242.03;5046941;28;20033;-71
2023/07/19 03:25:24;;;;;;;98.90;94.43;;;;;;;25.64;34.87;101235.19;5043314;28;20071;-74
2023/07/19 03:27:50;;;;;;;100.85;96.07;;;;;;;25.62;34.73;101239.44;5042863;28;20041;-71
2023/07/19 03:30:16;;;;;;;102.03;97.43;;;;;;;25.61;34.74;101237.84;5038710;28;20404;-73
2023/07/19 03:32:41;;;;;;;98.25;93.40;;;;;;;25.58;34.63;101244.84;5045876;28;20041;-71
2023/07/19 03:35:07;;;;;;;102.60;98.00;;;;;;;25.56;35.13;101247.13;5051605;28;20042;-73
2023/07/19 03:37:36;;;;;;;100.68;95.63;;;;;;;25.54;34.82;101243.88;5041985;28;20435;-73
2023/07/19 03:40:02;;;;;;;99.78;94.72;;;;;;;25.52;34.91;101245.34;5047797;28;20110;-72
2023/07/19 03:42:28;;;;;;;100.63;96.10;;;;;;;25.50;34.61;101244.88;5039574;28;20033;-73
2023/07/19 03:44:53;;;;;;;99.07;94.18;;;;;;;25.47;35.00;101241.63;5048018;28;20052;-73
2023/07/19 03:47:19;;;;;;;100.45;95.97;;;;;;;25.45;35.00;101237.56;5041135;28;20120;-72
2023/07/19 03:49:44;;;;;;;100.70;95.95;;;;;;;25.44;34.88;101245.06;5043413;28;20534;-74
2023/07/19 03:52:10;;;;;;;96.47;91.88;;;;;;;25.41;35.07;101242.97;5043131;28;20584;-73
2023/07/19 03:54:35;;;;;;;101.30;96.53;;;;;;;25.40;34.97;101246.03;5042071;28;20489;-73
2023/07/19 03:57:01;;;;;;;98.07;93.03;;;;;;;25.37;34.90;101255.81;5044993;28;20036;-73
2023/07/19 03:59:26;;;;;;;98.07;93.55;;;;;;;25.36;34.83;101256.97;5044948;28;20075;-72
2023/07/19 04:01:52;;;;;;;96.18;91.88;;;;;;;25.33;35.19;101252.09;5050436;28;20029;-73
2023/07/19 04:04:17;;;;;;;97.85;93.35;;;;;;;25.32;35.05;101250.47;5043796;28;20041;-72
2023/07/19 04:06:43;;;;;;;100.00;95.40;;;;;;;25.30;34.88;101251.94;5040783;28;20056;-72
2023/07/19 04:09:08;;;;;;;96.85;92.25;;;;;;;25.28;35.18;101252.28;5049588;28;20037;-72
2023/07/19 04:11:34;;;;;;;97.78;93.25;;;;;;;25.26;35.14;101243.50;5048757;28;20467;-71
2023/07/19 04:14:00;;;;;;;99.43;94.82;;;;;;;25.24;35.62;101241.06;5043057;28;20033;-71
2023/07/19 04:16:25;;;;;;;96.95;92.55;;;;;;;25.23;35.35;101242.22;5045260;28;20537;-73
2023/07/19 04:18:51;;;;;;;98.82;94.18;;;;;;;25.21;35.51;101243.69;5049465;28;20033;-71
2023/07/19 04:21:16;;;;;;;96.53;92.18;;;;;;;25.20;35.46;101247.56;5046723;28;20437;-72
2023/07/19 04:23:41;;;;;;;99.03;94.05;;;;;;;25.17;35.46;101251.00;5041963;28;20495;-74
2023/07/19 04:26:07;;;;;;;95.20;90.55;;;;;;;25.15;35.46;101250.47;5044011;28;20060;-72
2023/07/19 04:28:32;;;;;;;96.53;91.60;;;;;;;25.14;35.35;101248.88;5043289;28;20503;-72
2023/07/19 04:30:58;;;;;;;95.18;90.68;;;;;;;25.11;35.76;101242.03;5047375;28;20036;-72
2023/07/19 04:33:23;;;;;;;95.93;91.22;;;;;;;25.09;35.88;101247.09;5043177;28;20544;-73
2023/07/19 04:35:50;;;;;;;93.78;89.30;;;;;;;25.08;35.72;101247.44;5038003;28;20030;-72
2023/07/19 04:38:16;;;;;;;96.25;91.70;;;;;;;25.05;35.97;101251.66;5050606;28;20120;-73
2023/07/19 04:40:41;;;;;;;94.65;90.10;;;;;;;25.04;35.54;101259.13;5045841;28;20124;-73
2023/07/19 04:43:07;;;;;;;96.13;91.68;;;;;;;25.02;36.03;101252.28;5041634;28;20041;-71
2023/07/19 04:45:32;;;;;;;95.53;90.93;;;;;;;25.00;35.96;101257.38;5045487;28;20041;-73
2023/07/19 04:47:57;;;;;;;96.03;91.45;;;;;;;24.99;35.97;101259.28;5045194;28;20359;-72
2023/07/19 04:50:24;;;;;;;96.00;91.55;;;;;;;24.97;35.64;101261.59;5041151;28;20389;-71
2023/07/19 04:52:50;;;;;;;92.93;88.40;;;;;;;24.96;36.07;101259.97;5042147;28;20541;-71
2023/07/19 04:55:16;;;;;;;93.07;88.68;;;;;;;24.94;36.04;101269.72;5042140;28;20076;-74
2023/07/19 04:57:41;;;;;;;96.53;91.68;;;;;;;24.91;35.79;101256.56;5047522;28;20424;-71
2023/07/19 05:00:11;;;;;;;91.75;87.53;;;;;;;24.90;35.97;101266.81;5048124;28;20041;-72
2023/07/19 05:02:38;;;;;;;94.22;89.50;;;;;;;24.88;35.95;101263.56;5045486;28;20113;-73
2023/07/19 05:05:05;;;;;;;92.97;88.57;;;;;;;24.87;36.07;101266.63;5041968;28;20044;-73
2023/07/19 05:07:36;;;;;;;94.13;89.32;;;;;;;24.86;35.91;101265.03;5037845;28;20072;-74
2023/07/19 05:10:03;;;;;;;90.25;86.07;;;;;;;24.84;35.92;101265.34;5042907;28;20389;-72
2023/07/19 05:12:29;;;;;;;90.85;86.28;;;;;;;24.81;36.01;101264.03;5043881;28;20049;-74
2023/07/19 05:14:55;;;;;;;88.32;84.03;;;;;;;24.81;36.26;101266.00;5045349;28;20041;-74
2023/07/19 05:17:21;;;;;;;89.63;84.82;;;;;;;24.80;35.98;101261.63;5041557;28;20365;-72
2023/07/19 05:19:46;;;;;;;93.97;89.38;;;;;;;24.77;36.50;101260.31;5043328;28;20048;-71
2023/07/19 05:22:11;;;;;;;95.30;90.85;;;;;;;24.76;36.33;101255.13;5037314;28;20040;-73
2023/07/19 05:24:37;;;;;;;92.82;88.35;;;;;;;24.75;36.33;101262.59;5039871;28;20060;-72
2023/07/19 05:27:03;;;;;;;95.70;91.03;;;;;;;24.73;36.70;101253.81;5045204;28;20048;-73
2023/07/19 05:29:28;;;;;;;93.70;89.15;;;;;;;24.72;36.69;101257.72;5036163;28;20045;-71
2023/07/19 05:31:54;;;;;;;94.18;89.28;;;;;;;24.70;36.40;101257.25;5039266;28;20689;-75
2023/07/19 05:34:21;;;;;;;90.72;86.32;;;;;;;24.71;36.54;101249.75;5038866;28;20478;-72
2023/07/19 05:36:47;;;;;;;90.45;86.18;;;;;;;24.68;36.84;101251.22;5040075;28;20044;-73
2023/07/19 05:39:12;;;;;;;90.13;86.00;;;;;;;24.68;36.63;101253.19;5032630;28;20037;-73
2023/07/19 05:41:38;;;;;;;93.68;88.47;;;;;;;24.68;36.66;101253.19;5034609;28;20053;-71
2023/07/19 05:44:04;;;;;;;92.15;87.82;;;;;;;24.66;36.24;101255.44;5035656;28;20719;-72
2023/07/19 05:46:29;;;;;;;89.25;84.95;;;;;;;24.66;36.85;101249.91;5035459;28;20196;-71
2023/07/19 05:48:54;;;;;;;90.07;85.63;;;;;;;24.64;36.84;101250.22;5034269;28;20119;-72
2023/07/19 05:51:20;;;;;;;92.93;88.35;;;;;;;24.62;36.95;101255.28;5035606;28;20475;-74
2023/07/19 05:53:45;;;;;;;94.63;89.95;;;;;;;24.62;36.48;101252.53;5037343;28;20063;-73
2023/07/19 05:56:10;;;;;;;88.95;84.75;;;;;;;24.61;36.98;101256.41;5033632;28;20124;-73
2023/07/19 05:58:36;;;;;;;91.72;87.43;;;;;;;24.60;36.62;101252.84;5027269;28;20087;-72
2023/07/19 06:01:04;;;;;;;91.93;87.30;;;;;;;24.58;37.17;101260.63;5032588;28;20047;-71
2023/07/19 06:03:29;;;;;;;93.03;88.63;;;;;;;24.58;36.92;101257.88;5034149;28;20037;-73
2023/07/19 06:05:55;;;;;;;91.75;87.45;;;;;;;24.57;36.96;101256.25;5028221;28;20095;-72
2023/07/19 06:08:20;;;;;;;89.03;84.85;;;;;;;24.57;37.19;101261.00;5030762;28;20033;-73
2023/07/19 06:10:46;;;;;;;91.55;87.15;;;;;;;24.56;37.22;101257.38;5032401;28;20103;-74
2023/07/19 06:13:14;;;;;;;93.30;88.35;;;;;;;24.56;37.06;101256.56;5042093;28;20546;-72
2023/07/19 06:15:39;;;;;;;87.07;82.90;;;;;;;24.55;36.92;101254.97;5028642;28;20385;-74
2023/07/19 06:18:05;;;;;;;91.18;86.68;;;;;;;24.55;37.19;101255.78;5028577;28;20030;-73
2023/07/19 06:20:30;;;;;;;91.93;87.20;;;;;;;24.54;37.15;101251.38;5039138;28;20040;-74
2023/07/19 06:22:55;;;;;;;90.85;86.65;;;;;;;24.54;36.89;101254.13;5038956;28;20048;-74
2023/07/19 06:25:21;;;;;;;90.60;86.20;;;;;;;24.54;36.97;101253.31;5026706;28;20069;-71
2023/07/19 06:27:46;;;;;;;92.18;86.72;;;;;;;24.54;36.91;101250.56;5027268;28;20155;-74
2023/07/19 06:30:12;;;;;;;88.28;84.25;;;;;;;24.54;36.82;101253.31;5033684;28;20056;-74
2023/07/19 06:32:38;;;;;;;86.80;82.70;;;;;;;24.54;36.91;101248.59;5029908;28;20095;-74
2023/07/19 06:35:04;;;;;;;88.38;84.15;;;;;;;24.54;36.95;101247.81;5028137;28;20109;-75
2023/07/19 06:37:31;;;;;;;90.63;86.13;;;;;;;24.54;37.26;101245.03;5027831;28;20053;-73
2023/07/19 06:39:56;;;;;;;91.25;86.72;;;;;;;24.54;37.45;101251.38;5029052;28;20073;-74
2023/07/19 06:42:22;;;;;;;88.15;83.95;;;;;;;24.53;37.20;101252.53;5037489;28;20073;-74
2023/07/19 06:44:47;;;;;;;90.97;86.60;;;;;;;24.54;37.08;101256.91;5040796;28;20045;-74
2023/07/19 06:47:14;;;;;;;90.32;86.15;;;;;;;24.55;37.46;101254.97;5028239;28;20044;-73
2023/07/19 06:49:39;;;;;;;90.43;85.85;;;;;;;24.54;37.17;101258.84;5031204;28;20037;-73
2023/07/19 06:52:05;;;;;;;85.43;81.40;;;;;;;24.54;37.27;101262.41;5032471;28;20052;-73
2023/07/19 06:54:31;;;;;;;88.30;83.85;;;;;;;24.55;37.12;101260.50;5034806;28;20408;-74
2023/07/19 06:56:56;;;;;;;90.25;86.05;;;;;;;24.54;37.33;101256.91;5026148;28;20049;-75
2023/07/19 06:59:21;;;;;;;90.35;86.05;;;;;;;24.55;37.40;101257.72;5027725;28;20537;-73
2023/07/19 07:01:47;;;;;;;88.50;84.10;;;;;;;24.54;37.33;101259.66;5028796;28;20031;-74
2023/07/19 07:04:13;;;;;;;90.47;85.82;;;;;;;24.55;37.16;101266.81;5028543;28;20041;-72
2023/07/19 07:06:39;;;;;;;89.07;84.78;;;;;;;24.56;37.61;101275.91;5035463;28;20472;-74
2023/07/19 07:09:04;;;;;;;88.28;84.22;;;;;;;24.55;37.28;101266.00;5031780;28;20061;-73
2023/07/19 07:11:30;;;;;;;92.28;87.78;;;;;;;24.55;37.37;101272.34;5028821;28;20469;-73
2023/07/19 07:13:55;;;;;;;89.43;85.03;;;;;;;24.56;37.14;101273.97;5032334;28;20053;-73
2023/07/19 07:16:20;;;;;;;86.55;82.28;;;;;;;24.56;37.31;101271.19;5029568;28;20031;-72
2023/07/19 07:18:46;;;;;;;90.28;85.80;;;;;;;24.56;37.52;101268.44;5027146;28;20037;-72
2023/07/19 07:21:11;;;;;;;84.72;80.78;;;;;;;24.57;37.48;101272.03;5038312;28;20127;-73
2023/07/19 07:23:36;;;;;;;86.47;82.32;;;;;;;24.57;37.15;101270.06;5032193;28;20124;-74
2023/07/19 07:26:03;;;;;;;86.05;81.82;;;;;;;24.58;37.79;101265.34;5031605;28;20152;-73
2023/07/19 07:28:29;;;;;;;85.97;81.53;;;;;;;24.58;37.48;101270.88;5033995;28;20388;-72
2023/07/19 07:30:54;;;;;;;88.13;83.93;;;;;;;24.58;37.78;101260.63;5038726;28;20470;-75
2023/07/19 07:33:19;;;;;;;88.38;84.38;;;;;;;24.59;37.87;101265.03;5043135;28;20048;-73
2023/07/19 07:35:46;;;;;;;86.35;82.05;;;;;;;24.60;37.82;101268.63;5030795;28;20495;-74
2023/07/19 07:38:11;;;;;;;88.93;84.63;;;;;;;24.60;37.57;101266.66;5032126;28;20573;-73
2023/07/19 07:40:37;;;;;;;90.05;85.97;;;;;;;24.61;37.35;101262.75;5036758;28;20033;-73
2023/07/19 07:43:02;;;;;;;89.45;85.07;;;;;;;24.61;37.84;101268.28;5044094;28;20030;-74
2023/07/19 07:45:28;;;;;;;89.82;85.53;;;;;;;24.62;37.58;101263.59;5038093;28;20170;-74
2023/07/19 07:47:53;;;;;;;91.55;86.68;;;;;;;24.63;37.83;101261.63;5032900;28;20049;-77
2023/07/19 07:50:19;;;;;;;89.78;85.53;;;;;;;24.65;37.41;101262.94;5020671;28;20140;-72
2023/07/19 07:52:45;;;;;;;83.15;79.45;;;;;;;24.66;37.77;101260.97;5029440;28;20041;-73
2023/07/19 07:55:10;;;;;;;85.35;81.45;;;;;;;24.68;37.38;101261.47;5034131;28;20506;-73
2023/07/19 07:57:37;;;;;;;89.55;85.13;;;;;;;24.68;37.72;101264.22;5037970;28;20034;-74
2023/07/19 08:00:08;;;;;;;89.15;84.88;;;;;;;24.69;37.96;101255.59;5031945;28;20112;-74
2023/07/19 08:02:33;;;;;;;87.20;83.00;;;;;;;24.71;38.18;101250.56;5037118;28;20025;-75
2023/07/19 08:04:58;;;;;;;89.45;85.40;;;;;;;24.72;37.64;101254.97;5033639;28;20094;-73
2023/07/19 08:07:27;;;;;;;90.60;86.20;;;;;;;24.73;37.67;101253.00;5034637;28;20047;-74
2023/07/19 08:09:53;;;;;;;91.28;86.95;;;;;;;24.74;37.80;101249.91;5032957;28;20070;-75
2023/07/19 08:12:19;;;;;;;86.10;81.95;;;;;;;24.77;38.15;101251.19;5031288;28;20061;-74
2023/07/19 08:14:45;;;;;;;87.18;83.05;;;;;;;24.79;38.41;101243.41;5035573;28;20045;-73
2023/07/19 08:17:10;;;;;;;89.93;85.63;;;;;;;24.80;38.16;101242.28;5035686;28;20059;-73
2023/07/19 08:19:36;;;;;;;90.68;86.45;;;;;;;24.82;38.32;101246.34;5029460;28;20041;-74
2023/07/19 08:22:05;;;;;;;87.40;82.90;;;;;;;24.83;37.70;101242.44;5032083;28;20077;-73
2023/07/19 08:24:31;;;;;;;87.53;82.95;;;;;;;24.86;37.98;101231.88;5035410;28;20045;-74
2023/07/19 08:26:57;;;;;;;87.68;83.03;;;;;;;24.88;38.10;101243.41;5041468;28;20076;-72
2023/07/19 08:29:23;;;;;;;89.07;84.68;;;;;;;24.89;38.19;101236.72;5031249;28;20156;-73
2023/07/19 08:31:48;;;;;;;94.45;90.25;;;;;;;24.93;38.07;101246.00;5031382;28;20041;-73
2023/07/19 08:34:13;;;;;;;95.15;90.82;;;;;;;24.94;38.57;101236.56;5038280;28;22495;-72
2023/07/19 08:36:39;;;;;;;92.70;88.20;;;;;;;24.96;38.54;101242.56;5037531;28;20045;-74
2023/07/19 08:39:04;;;;;;;93.50;88.88;;;;;;;24.97;37.93;101241.41;5030356;28;20049;-73
2023/07/19 08:41:32;;;;;;;93.95;89.35;;;;;;;25.00;37.99;101240.78;5037400;28;20033;-72
2023/07/19 08:43:58;;;;;;;91.27;87.10;;;;;;;25.01;38.34;101240.44;5038683;28;20041;-73
2023/07/19 08:46:24;;;;;;;92.18;88.10;;;;;;;25.03;37.65;101246.47;5034041;28;20787;-74
2023/07/19 08:48:50;;;;;;;92.95;88.55;;;;;;;25.05;37.75;101238.66;5038660;28;20048;-72
2023/07/19 08:51:16;;;;;;;95.80;91.30;;;;;;;25.09;37.88;101243.50;5034030;28;20029;-72
2023/07/19 08:53:42;;;;;;;96.25;91.65;;;;;;;25.13;38.17;101244.50;5036507;28;20029;-72
2023/07/19 08:56:13;;;;;;;97.88;93.22;;;;;;;25.16;38.24;101243.81;5030349;28;20091;-73
2023/07/19 08:58:39;;;;;;;94.88;89.03;;;;;;;25.18;38.14;101236.84;5038164;28;20044;-75
2023/07/19 09:01:06;;;;;;;92.82;87.93;;;;;;;25.23;37.87;101241.41;5036007;28;20048;-73
2023/07/19 09:03:32;;;;;;;94.05;89.65;;;;;;;25.26;37.90;101236.00;5026341;28;20043;-72
2023/07/19 09:05:57;;;;;;;91.00;86.95;;;;;;;25.29;38.00;101234.53;5029157;28;20041;-73
2023/07/19 09:08:38;;;;;;;96.03;91.18;;;;;;;25.34;37.90;101236.31;5030392;28;20087;-74
2023/07/19 09:11:04;;;;;;;96.43;91.88;;;;;;;25.36;38.07;101243.13;5043226;28;20030;-74
2023/07/19 09:13:35;;;;;;;93.18;89.00;;;;;;;25.40;38.06;101237.75;5026882;28;20048;-74
2023/07/19 09:16:03;;;;;;;97.70;93.30;;;;;;;25.44;37.88;101236.75;5028602;28;20087;-74
2023/07/19 09:18:34;;;;;;;92.97;88.38;;;;;;;25.48;37.83;101239.69;5028479;28;20034;-78
2023/07/19 09:20:59;;;;;;;95.55;91.15;;;;;;;25.53;37.84;101233.13;5034451;28;20040;-76
2023/07/19 09:23:25;;;;;;;96.45;92.05;;;;;;;25.56;38.12;101230.53;5021856;28;20044;-73
2023/07/19 09:25:54;;;;;;;95.20;90.65;;;;;;;25.59;37.90;101229.84;5028469;28;20491;-75
2023/07/19 09:28:24;;;;;;;100.20;95.60;;;;;;;25.64;37.97;101234.41;5036044;28;20036;-73
2023/07/19 09:30:58;;;;;;;94.18;89.95;;;;;;;25.69;38.12;101225.91;5037374;28;20036;-74
2023/07/19 09:33:27;;;;;;;95.72;91.63;;;;;;;25.71;37.94;101240.22;5019067;28;20049;-72
2023/07/19 09:35:54;;;;;;;94.53;90.13;;;;;;;25.73;37.99;101232.41;5033716;28;20038;-74
2023/07/19 09:38:21;;;;;;;98.63;93.90;;;;;;;25.78;37.64;101235.00;5028293;28;20501;-72
2023/07/19 09:40:48;;;;;;;98.43;93.82;;;;;;;25.80;37.94;101234.63;5039096;28;20034;-72
2023/07/19 09:43:15;;;;;;;96.40;91.82;;;;;;;25.83;37.56;101229.25;5027926;28;20595;-73
2023/07/19 09:45:42;;;;;;;96.25;91.82;;;;;;;25.86;37.97;101228.63;5031617;28;20512;-72
2023/07/19 09:48:08;;;;;;;98.93;94.63;;;;;;;25.92;37.85;101239.50;5030516;28;20574;-74
2023/07/19 09:50:37;;;;;;;102.82;97.68;;;;;;;25.96;37.79;101237.69;5032790;28;20044;-71
2023/07/19 09:53:03;;;;;;;101.25;96.70;;;;;;;26.00;37.68;101233.88;5027478;28;20041;-75
2023/07/19 09:55:31;;;;;;;101.72;97.30;;;;;;;26.04;37.99;101234.84;5031853;28;20083;-73
2023/07/19 09:57:58;;;;;;;95.78;91.55;;;;;;;26.08;37.36;101240.50;5033637;28;20365;-74
2023/07/19 10:00:24;;;;;;;107.40;102.57;;;;;;;26.11;37.30;101231.56;5028905;28;20044;-75
2023/07/19 10:02:49;;;;;;;100.75;96.45;;;;;;;26.16;37.74;101234.13;5034055;28;20127;-74
2023/07/19 10:05:15;;;;;;;105.45;100.13;;;;;;;26.21;37.76;101236.69;5032312;28;20036;-75
2023/07/19 10:07:46;;;;;;;103.43;98.63;;;;;;;26.25;37.52;101234.03;5032184;28;20057;-73
2023/07/19 10:10:14;;;;;;;103.57;98.97;;;;;;;26.29;37.69;101235.81;5035198;28;20038;-73
2023/07/19 10:12:45;;;;;;;100.72;96.22;;;;;;;26.34;37.28;101232.84;5017695;28;20044;-78
2023/07/19 10:15:16;;;;;;;98.18;93.88;;;;;;;26.40;37.58;101224.31;5033821;28;20076;-75
2023/07/19 10:17:53;;;;;;;101.05;96.47;;;;;;;26.44;37.22;101237.16;5026622;28;20037;-73
2023/07/19 10:20:35;;;;;;;105.93;101.10;;;;;;;26.49;37.49;101230.63;5030428;28;20037;-75
2023/07/19 10:23:05;;;;;;;98.53;94.32;;;;;;;26.51;37.60;101234.66;5033019;28;20041;-75
2023/07/19 10:25:48;;;;;;;111.97;106.93;;;;;;;26.57;37.65;101235.28;5027743;28;20477;-74
2023/07/19 10:28:24;;;;;;;104.22;99.65;;;;;;;26.62;37.58;101237.03;5027613;28;20065;-78
2023/07/19 10:30:51;;;;;;;103.85;99.13;;;;;;;26.66;37.13;101237.97;5028624;28;20030;-77
2023/07/19 10:33:19;;;;;;;102.68;97.95;;;;;;;26.70;37.41;101236.94;5033564;28;20370;-73
2023/07/19 10:35:46;;;;;;;102.18;97.68;;;;;;;26.74;37.62;101240.69;5028003;28;20047;-73
2023/07/19 10:38:16;;;;;;;106.13;101.43;;;;;;;26.80;37.17;101240.47;5031035;28;20103;-74
2023/07/19 10:40:48;;;;;;;105.90;101.20;;;;;;;26.85;37.07;101245.78;5027296;28;20409;-73
2023/07/19 10:43:14;;;;;;;107.25;102.40;;;;;;;26.89;37.26;101239.22;5041041;28;20070;-74
2023/07/19 10:45:41;;;;;;;107.22;102.25;;;;;;;26.92;37.36;101233.00;5030212;28;20041;-73
2023/07/19 10:48:06;;;;;;;106.20;101.35;;;;;;;26.98;37.06;101241.91;5027240;28;20030;-73
2023/07/19 10:50:32;;;;;;;110.60;105.70;;;;;;;27.02;37.14;101234.53;5027268;28;20044;-76
2023/07/19 10:52:57;;;;;;;112.55;107.65;;;;;;;27.05;37.50;101227.50;5034754;28;20634;-74
2023/07/19 10:55:23;;;;;;;106.25;101.53;;;;;;;27.11;37.10;101228.88;5030390;28;20037;-74
2023/07/19 10:57:49;;;;;;;105.43;100.63;;;;;;;27.15;37.16;101238.94;5027648;28;20037;-74
2023/07/19 11:00:15;;;;;;;110.45;105.45;;;;;;;27.17;36.85;101233.88;5027108;28;20685;-75